sensor_id;sensor_type;location;lat;lon;timestamp;P1;durP1;ratioP1;P2;durP2;ratioP2
5379;SDS011;2713;42.680;23.310;2024-02-15T00:00:36;7.95;;;6.63;;
5379;SDS011;2713;42.680;23.310;2024-02-15T00:03:03;8.63;;;7.28;;
5379;SDS011;2713;42.680;23.310;2024-02-15T00:05:33;7.70;;;6.55;;
5379;SDS011;2713;42.680;23.310;2024-02-15T00:08:01;8.60;;;6.50;;
5379;SDS011;2713;42.680;23.310;2024-02-15T00:10:29;7.25;;;6.55;;
5379;SDS011;2713;42.680;23.310;2024-02-15T00:12:56;7.53;;;6.45;;
5379;SDS011;2713;42.680;23.310;2024-02-15T00:15:23;7.50;;;6.80;;
5379;SDS011;2713;42.680;23.310;2024-02-15T00:17:50;9.03;;;6.77;;
5379;SDS011;2713;42.680;23.310;2024-02-15T00:20:17;7.60;;;6.90;;
5379;SDS011;2713;42.680;23.310;2024-02-15T00:22:46;8.30;;;6.97;;
5379;SDS011;2713;42.680;23.310;2024-02-15T00:25:15;8.15;;;7.30;;
5379;SDS011;2713;42.680;23.310;2024-02-15T00:27:42;8.65;;;7.15;;
5379;SDS011;2713;42.680;23.310;2024-02-15T00:30:09;9.40;;;7.30;;
5379;SDS011;2713;42.680;23.310;2024-02-15T00:32:36;8.57;;;7.03;;
5379;SDS011;2713;42.680;23.310;2024-02-15T00:35:03;8.45;;;6.57;;
5379;SDS011;2713;42.680;23.310;2024-02-15T00:37:33;8.27;;;7.20;;
5379;SDS011;2713;42.680;23.310;2024-02-15T00:40:01;8.05;;;6.68;;
5379;SDS011;2713;42.680;23.310;2024-02-15T00:42:29;9.65;;;6.43;;
5379;SDS011;2713;42.680;23.310;2024-02-15T00:44:56;7.28;;;6.57;;
5379;SDS011;2713;42.680;23.310;2024-02-15T00:47:23;7.40;;;6.65;;
5379;SDS011;2713;42.680;23.310;2024-02-15T00:49:50;7.10;;;6.40;;
5379;SDS011;2713;42.680;23.310;2024-02-15T00:52:17;6.95;;;6.25;;
5379;SDS011;2713;42.680;23.310;2024-02-15T00:54:44;7.70;;;6.83;;
5379;SDS011;2713;42.680;23.310;2024-02-15T00:57:12;7.45;;;6.20;;
5379;SDS011;2713;42.680;23.310;2024-02-15T00:59:39;7.30;;;6.40;;
5379;SDS011;2713;42.680;23.310;2024-02-15T01:02:05;9.40;;;6.70;;
5379;SDS011;2713;42.680;23.310;2024-02-15T01:04:33;8.20;;;6.87;;
5379;SDS011;2713;42.680;23.310;2024-02-15T01:07:00;7.78;;;6.97;;
5379;SDS011;2713;42.680;23.310;2024-02-15T01:09:27;8.63;;;7.17;;
5379;SDS011;2713;42.680;23.310;2024-02-15T01:11:54;6.90;;;6.10;;
5379;SDS011;2713;42.680;23.310;2024-02-15T01:14:22;7.27;;;6.13;;
5379;SDS011;2713;42.680;23.310;2024-02-15T01:16:49;8.18;;;7.32;;
5379;SDS011;2713;42.680;23.310;2024-02-15T01:19:16;7.57;;;6.28;;
5379;SDS011;2713;42.680;23.310;2024-02-15T01:21:42;8.30;;;7.15;;
5379;SDS011;2713;42.680;23.310;2024-02-15T01:24:11;7.83;;;6.27;;
5379;SDS011;2713;42.680;23.310;2024-02-15T01:26:38;8.10;;;7.10;;
5379;SDS011;2713;42.680;23.310;2024-02-15T01:29:05;7.70;;;6.20;;
5379;SDS011;2713;42.680;23.310;2024-02-15T01:31:33;7.78;;;6.80;;
5379;SDS011;2713;42.680;23.310;2024-02-15T01:34:00;8.98;;;6.82;;
5379;SDS011;2713;42.680;23.310;2024-02-15T01:36:27;9.02;;;7.00;;
5379;SDS011;2713;42.680;23.310;2024-02-15T01:38:54;8.27;;;6.57;;
5379;SDS011;2713;42.680;23.310;2024-02-15T01:41:21;8.05;;;6.10;;
5379;SDS011;2713;42.680;23.310;2024-02-15T01:43:48;10.05;;;6.50;;
5379;SDS011;2713;42.680;23.310;2024-02-15T01:46:15;8.07;;;7.13;;
5379;SDS011;2713;42.680;23.310;2024-02-15T01:48:43;7.40;;;6.50;;
5379;SDS011;2713;42.680;23.310;2024-02-15T01:51:12;9.43;;;7.15;;
5379;SDS011;2713;42.680;23.310;2024-02-15T01:53:41;7.20;;;6.50;;
5379;SDS011;2713;42.680;23.310;2024-02-15T01:56:08;8.25;;;6.53;;
5379;SDS011;2713;42.680;23.310;2024-02-15T01:58:38;8.52;;;7.07;;
5379;SDS011;2713;42.680;23.310;2024-02-15T02:01:06;8.47;;;7.07;;
5379;SDS011;2713;42.680;23.310;2024-02-15T02:03:33;8.65;;;7.28;;
5379;SDS011;2713;42.680;23.310;2024-02-15T02:06:03;9.77;;;7.55;;
5379;SDS011;2713;42.680;23.310;2024-02-15T02:08:30;7.45;;;6.63;;
5379;SDS011;2713;42.680;23.310;2024-02-15T02:10:56;8.60;;;6.75;;
5379;SDS011;2713;42.680;23.310;2024-02-15T02:13:23;10.60;;;6.70;;
5379;SDS011;2713;42.680;23.310;2024-02-15T02:15:50;8.70;;;7.07;;
5379;SDS011;2713;42.680;23.310;2024-02-15T02:18:17;8.23;;;7.05;;
5379;SDS011;2713;42.680;23.310;2024-02-15T02:20:44;8.18;;;6.30;;
5379;SDS011;2713;42.680;23.310;2024-02-15T02:23:14;8.38;;;6.90;;
5379;SDS011;2713;42.680;23.310;2024-02-15T02:25:45;8.27;;;7.13;;
5379;SDS011;2713;42.680;23.310;2024-02-15T02:28:14;8.63;;;6.82;;
5379;SDS011;2713;42.680;23.310;2024-02-15T02:30:42;10.07;;;6.88;;
5379;SDS011;2713;42.680;23.310;2024-02-15T02:33:10;10.70;;;7.18;;
5379;SDS011;2713;42.680;23.310;2024-02-15T02:35:44;9.88;;;7.72;;
5379;SDS011;2713;42.680;23.310;2024-02-15T02:38:11;7.65;;;6.70;;
5379;SDS011;2713;42.680;23.310;2024-02-15T02:40:39;9.52;;;7.32;;
5379;SDS011;2713;42.680;23.310;2024-02-15T02:43:08;9.10;;;7.05;;
5379;SDS011;2713;42.680;23.310;2024-02-15T02:45:35;10.50;;;7.20;;
5379;SDS011;2713;42.680;23.310;2024-02-15T02:48:01;8.27;;;6.90;;
5379;SDS011;2713;42.680;23.310;2024-02-15T02:50:28;8.77;;;7.88;;
5379;SDS011;2713;42.680;23.310;2024-02-15T02:52:55;9.13;;;7.90;;
5379;SDS011;2713;42.680;23.310;2024-02-15T02:55:22;12.50;;;7.90;;
5379;SDS011;2713;42.680;23.310;2024-02-15T02:57:49;12.30;;;8.68;;
5379;SDS011;2713;42.680;23.310;2024-02-15T03:00:18;7.70;;;6.85;;
5379;SDS011;2713;42.680;23.310;2024-02-15T03:02:45;12.98;;;8.07;;
5379;SDS011;2713;42.680;23.310;2024-02-15T03:05:12;10.25;;;7.55;;
5379;SDS011;2713;42.680;23.310;2024-02-15T03:07:40;10.30;;;7.78;;
5379;SDS011;2713;42.680;23.310;2024-02-15T03:10:07;10.20;;;7.88;;
5379;SDS011;2713;42.680;23.310;2024-02-15T03:12:38;9.10;;;7.32;;
5379;SDS011;2713;42.680;23.310;2024-02-15T03:15:06;9.30;;;7.80;;
5379;SDS011;2713;42.680;23.310;2024-02-15T03:17:37;13.95;;;8.35;;
5379;SDS011;2713;42.680;23.310;2024-02-15T03:20:05;10.80;;;8.20;;
5379;SDS011;2713;42.680;23.310;2024-02-15T03:22:36;10.75;;;8.25;;
5379;SDS011;2713;42.680;23.310;2024-02-15T03:25:03;9.88;;;7.50;;
5379;SDS011;2713;42.680;23.310;2024-02-15T03:27:33;10.88;;;8.88;;
5379;SDS011;2713;42.680;23.310;2024-02-15T03:30:00;10.32;;;8.00;;
5379;SDS011;2713;42.680;23.310;2024-02-15T03:32:29;11.80;;;8.85;;
5379;SDS011;2713;42.680;23.310;2024-02-15T03:34:57;9.50;;;8.00;;
5379;SDS011;2713;42.680;23.310;2024-02-15T03:37:26;9.43;;;8.13;;
5379;SDS011;2713;42.680;23.310;2024-02-15T03:39:52;10.68;;;7.90;;
5379;SDS011;2713;42.680;23.310;2024-02-15T03:42:19;11.73;;;8.70;;
5379;SDS011;2713;42.680;23.310;2024-02-15T03:44:46;15.00;;;8.70;;
5379;SDS011;2713;42.680;23.310;2024-02-15T03:47:13;10.68;;;8.32;;
5379;SDS011;2713;42.680;23.310;2024-02-15T03:49:40;11.52;;;8.63;;
5379;SDS011;2713;42.680;23.310;2024-02-15T03:52:08;9.65;;;8.15;;
5379;SDS011;2713;42.680;23.310;2024-02-15T03:54:36;10.60;;;7.60;;
5379;SDS011;2713;42.680;23.310;2024-02-15T03:57:04;14.90;;;8.98;;
5379;SDS011;2713;42.680;23.310;2024-02-15T03:59:31;11.50;;;8.40;;
5379;SDS011;2713;42.680;23.310;2024-02-15T04:02:00;9.93;;;7.60;;
5379;SDS011;2713;42.680;23.310;2024-02-15T04:04:28;12.48;;;8.00;;
5379;SDS011;2713;42.680;23.310;2024-02-15T04:06:55;11.35;;;8.23;;
5379;SDS011;2713;42.680;23.310;2024-02-15T04:09:25;13.93;;;8.57;;
5379;SDS011;2713;42.680;23.310;2024-02-15T04:11:51;9.50;;;7.82;;
5379;SDS011;2713;42.680;23.310;2024-02-15T04:14:19;11.85;;;8.60;;
5379;SDS011;2713;42.680;23.310;2024-02-15T04:16:45;10.30;;;7.97;;
5379;SDS011;2713;42.680;23.310;2024-02-15T04:19:13;10.25;;;8.43;;
5379;SDS011;2713;42.680;23.310;2024-02-15T04:21:40;12.48;;;8.43;;
5379;SDS011;2713;42.680;23.310;2024-02-15T04:24:09;9.32;;;7.93;;
5379;SDS011;2713;42.680;23.310;2024-02-15T04:26:37;9.63;;;7.60;;
5379;SDS011;2713;42.680;23.310;2024-02-15T04:29:04;10.32;;;7.80;;
5379;SDS011;2713;42.680;23.310;2024-02-15T04:31:33;9.30;;;7.68;;
5379;SDS011;2713;42.680;23.310;2024-02-15T04:34:02;11.13;;;8.25;;
5379;SDS011;2713;42.680;23.310;2024-02-15T04:36:29;10.18;;;7.75;;
5379;SDS011;2713;42.680;23.310;2024-02-15T04:38:59;12.98;;;8.20;;
5379;SDS011;2713;42.680;23.310;2024-02-15T04:41:27;10.75;;;7.32;;
5379;SDS011;2713;42.680;23.310;2024-02-15T04:43:56;9.52;;;7.80;;
5379;SDS011;2713;42.680;23.310;2024-02-15T04:46:23;11.68;;;8.20;;
5379;SDS011;2713;42.680;23.310;2024-02-15T04:48:50;10.25;;;7.47;;
5379;SDS011;2713;42.680;23.310;2024-02-15T04:51:17;10.02;;;7.10;;
5379;SDS011;2713;42.680;23.310;2024-02-15T04:53:44;9.77;;;7.65;;
5379;SDS011;2713;42.680;23.310;2024-02-15T04:56:12;10.50;;;7.45;;
5379;SDS011;2713;42.680;23.310;2024-02-15T04:58:40;10.13;;;7.45;;
5379;SDS011;2713;42.680;23.310;2024-02-15T05:01:15;11.18;;;7.93;;
5379;SDS011;2713;42.680;23.310;2024-02-15T05:03:42;9.70;;;7.75;;
5379;SDS011;2713;42.680;23.310;2024-02-15T05:06:10;10.60;;;8.23;;
5379;SDS011;2713;42.680;23.310;2024-02-15T05:08:39;11.07;;;7.65;;
5379;SDS011;2713;42.680;23.310;2024-02-15T05:11:08;11.32;;;8.13;;
5379;SDS011;2713;42.680;23.310;2024-02-15T05:13:40;10.02;;;8.00;;
5379;SDS011;2713;42.680;23.310;2024-02-15T05:16:07;12.43;;;8.05;;
5379;SDS011;2713;42.680;23.310;2024-02-15T05:18:35;11.35;;;7.75;;
5379;SDS011;2713;42.680;23.310;2024-02-15T05:21:03;13.70;;;7.80;;
5379;SDS011;2713;42.680;23.310;2024-02-15T05:23:32;12.38;;;8.30;;
5379;SDS011;2713;42.680;23.310;2024-02-15T05:25:59;11.55;;;8.60;;
5379;SDS011;2713;42.680;23.310;2024-02-15T05:28:26;12.05;;;7.90;;
5379;SDS011;2713;42.680;23.310;2024-02-15T05:31:08;11.45;;;8.23;;
5379;SDS011;2713;42.680;23.310;2024-02-15T05:33:37;12.00;;;8.07;;
5379;SDS011;2713;42.680;23.310;2024-02-15T05:36:05;11.32;;;7.90;;
5379;SDS011;2713;42.680;23.310;2024-02-15T05:38:33;10.23;;;7.63;;
5379;SDS011;2713;42.680;23.310;2024-02-15T05:41:00;9.40;;;7.07;;
5379;SDS011;2713;42.680;23.310;2024-02-15T05:43:28;13.68;;;8.48;;
5379;SDS011;2713;42.680;23.310;2024-02-15T05:45:55;9.95;;;7.88;;
5379;SDS011;2713;42.680;23.310;2024-02-15T05:48:23;14.52;;;8.15;;
5379;SDS011;2713;42.680;23.310;2024-02-15T05:50:51;11.00;;;8.15;;
5379;SDS011;2713;42.680;23.310;2024-02-15T05:53:19;10.90;;;7.28;;
5379;SDS011;2713;42.680;23.310;2024-02-15T05:55:46;9.48;;;7.40;;
5379;SDS011;2713;42.680;23.310;2024-02-15T05:58:15;12.32;;;7.30;;
5379;SDS011;2713;42.680;23.310;2024-02-15T06:00:42;11.07;;;8.05;;
5379;SDS011;2713;42.680;23.310;2024-02-15T06:03:09;11.45;;;7.85;;
5379;SDS011;2713;42.680;23.310;2024-02-15T06:05:38;10.52;;;8.13;;
5379;SDS011;2713;42.680;23.310;2024-02-15T06:08:06;12.93;;;8.10;;
5379;SDS011;2713;42.680;23.310;2024-02-15T06:10:33;12.90;;;8.60;;
5379;SDS011;2713;42.680;23.310;2024-02-15T06:13:00;10.95;;;8.05;;
5379;SDS011;2713;42.680;23.310;2024-02-15T06:15:26;9.10;;;7.38;;
5379;SDS011;2713;42.680;23.310;2024-02-15T06:17:53;10.88;;;7.80;;
5379;SDS011;2713;42.680;23.310;2024-02-15T06:20:20;15.52;;;7.55;;
5379;SDS011;2713;42.680;23.310;2024-02-15T06:22:48;11.35;;;7.65;;
5379;SDS011;2713;42.680;23.310;2024-02-15T06:25:16;11.05;;;7.30;;
5379;SDS011;2713;42.680;23.310;2024-02-15T06:27:45;12.13;;;8.35;;
5379;SDS011;2713;42.680;23.310;2024-02-15T06:30:14;11.68;;;8.00;;
5379;SDS011;2713;42.680;23.310;2024-02-15T06:32:58;11.68;;;7.85;;
5379;SDS011;2713;42.680;23.310;2024-02-15T06:35:43;12.50;;;8.55;;
5379;SDS011;2713;42.680;23.310;2024-02-15T06:38:27;13.23;;;8.10;;
5379;SDS011;2713;42.680;23.310;2024-02-15T06:41:13;9.15;;;7.43;;
5379;SDS011;2713;42.680;23.310;2024-02-15T06:43:39;10.57;;;7.85;;
5379;SDS011;2713;42.680;23.310;2024-02-15T06:46:06;14.20;;;8.80;;
5379;SDS011;2713;42.680;23.310;2024-02-15T06:48:35;9.35;;;7.25;;
5379;SDS011;2713;42.680;23.310;2024-02-15T06:51:03;10.90;;;8.00;;
5379;SDS011;2713;42.680;23.310;2024-02-15T06:53:30;11.70;;;8.10;;
5379;SDS011;2713;42.680;23.310;2024-02-15T06:55:57;12.10;;;8.32;;
5379;SDS011;2713;42.680;23.310;2024-02-15T06:58:25;12.32;;;7.55;;
5379;SDS011;2713;42.680;23.310;2024-02-15T07:00:53;11.23;;;7.28;;
5379;SDS011;2713;42.680;23.310;2024-02-15T07:03:20;9.00;;;7.05;;
5379;SDS011;2713;42.680;23.310;2024-02-15T07:05:47;11.15;;;8.20;;
5379;SDS011;2713;42.680;23.310;2024-02-15T07:08:15;12.25;;;7.53;;
5379;SDS011;2713;42.680;23.310;2024-02-15T07:10:42;10.23;;;7.70;;
5379;SDS011;2713;42.680;23.310;2024-02-15T07:13:08;10.05;;;7.82;;
5379;SDS011;2713;42.680;23.310;2024-02-15T07:15:37;10.55;;;7.78;;
5379;SDS011;2713;42.680;23.310;2024-02-15T07:18:04;10.52;;;7.07;;
5379;SDS011;2713;42.680;23.310;2024-02-15T07:20:33;13.07;;;8.15;;
5379;SDS011;2713;42.680;23.310;2024-02-15T07:22:59;11.63;;;7.55;;
5379;SDS011;2713;42.680;23.310;2024-02-15T07:25:26;14.88;;;7.60;;
5379;SDS011;2713;42.680;23.310;2024-02-15T07:27:53;8.82;;;6.60;;
5379;SDS011;2713;42.680;23.310;2024-02-15T07:30:20;11.40;;;7.50;;
5379;SDS011;2713;42.680;23.310;2024-02-15T07:32:49;12.60;;;7.05;;
5379;SDS011;2713;42.680;23.310;2024-02-15T07:35:16;9.43;;;7.45;;
5379;SDS011;2713;42.680;23.310;2024-02-15T07:37:50;11.63;;;7.30;;
5379;SDS011;2713;42.680;23.310;2024-02-15T07:40:20;10.93;;;7.18;;
5379;SDS011;2713;42.680;23.310;2024-02-15T07:42:48;9.15;;;7.20;;
5379;SDS011;2713;42.680;23.310;2024-02-15T07:45:14;9.80;;;7.13;;
5379;SDS011;2713;42.680;23.310;2024-02-15T07:47:43;10.30;;;6.75;;
5379;SDS011;2713;42.680;23.310;2024-02-15T07:50:11;14.03;;;8.00;;
5379;SDS011;2713;42.680;23.310;2024-02-15T07:52:45;10.20;;;7.18;;
5379;SDS011;2713;42.680;23.310;2024-02-15T07:55:13;15.63;;;7.53;;
5379;SDS011;2713;42.680;23.310;2024-02-15T07:57:40;8.27;;;6.70;;
5379;SDS011;2713;42.680;23.310;2024-02-15T08:00:07;10.63;;;6.60;;
5379;SDS011;2713;42.680;23.310;2024-02-15T08:02:36;13.63;;;7.10;;
5379;SDS011;2713;42.680;23.310;2024-02-15T08:05:06;10.73;;;7.33;;
5379;SDS011;2713;42.680;23.310;2024-02-15T08:07:37;10.37;;;7.53;;
5379;SDS011;2713;42.680;23.310;2024-02-15T08:10:05;14.17;;;7.40;;
5379;SDS011;2713;42.680;23.310;2024-02-15T08:12:38;8.50;;;7.00;;
5379;SDS011;2713;42.680;23.310;2024-02-15T08:15:06;9.37;;;7.40;;
5379;SDS011;2713;42.680;23.310;2024-02-15T08:17:37;10.13;;;7.23;;
5379;SDS011;2713;42.680;23.310;2024-02-15T08:20:08;9.30;;;7.40;;
5379;SDS011;2713;42.680;23.310;2024-02-15T08:22:38;8.83;;;7.03;;
5379;SDS011;2713;42.680;23.310;2024-02-15T08:25:06;10.10;;;6.70;;
5379;SDS011;2713;42.680;23.310;2024-02-15T08:27:36;9.50;;;7.23;;
5379;SDS011;2713;42.680;23.310;2024-02-15T08:30:07;11.27;;;8.00;;
5379;SDS011;2713;42.680;23.310;2024-02-15T08:32:35;12.77;;;7.00;;
5379;SDS011;2713;42.680;23.310;2024-02-15T08:35:03;10.40;;;7.50;;
5379;SDS011;2713;42.680;23.310;2024-02-15T08:37:31;10.20;;;7.00;;
5379;SDS011;2713;42.680;23.310;2024-02-15T08:40:00;10.07;;;6.97;;
5379;SDS011;2713;42.680;23.310;2024-02-15T08:42:27;10.47;;;7.03;;
5379;SDS011;2713;42.680;23.310;2024-02-15T08:44:54;10.33;;;7.33;;
5379;SDS011;2713;42.680;23.310;2024-02-15T08:47:21;9.67;;;7.13;;
5379;SDS011;2713;42.680;23.310;2024-02-15T08:49:48;11.50;;;7.60;;
5379;SDS011;2713;42.680;23.310;2024-02-15T08:52:15;8.47;;;6.87;;
5379;SDS011;2713;42.680;23.310;2024-02-15T08:54:43;11.17;;;6.90;;
5379;SDS011;2713;42.680;23.310;2024-02-15T08:57:12;11.20;;;7.23;;
5379;SDS011;2713;42.680;23.310;2024-02-15T08:59:38;9.57;;;7.27;;
5379;SDS011;2713;42.680;23.310;2024-02-15T09:02:07;12.07;;;7.83;;
5379;SDS011;2713;42.680;23.310;2024-02-15T09:04:34;12.40;;;7.97;;
5379;SDS011;2713;42.680;23.310;2024-02-15T09:07:01;9.10;;;6.97;;
5379;SDS011;2713;42.680;23.310;2024-02-15T09:09:29;9.40;;;7.57;;
5379;SDS011;2713;42.680;23.310;2024-02-15T09:11:56;15.93;;;7.83;;
5379;SDS011;2713;42.680;23.310;2024-02-15T09:14:25;8.60;;;6.80;;
5379;SDS011;2713;42.680;23.310;2024-02-15T09:16:52;10.63;;;7.70;;
5379;SDS011;2713;42.680;23.310;2024-02-15T09:19:18;8.00;;;6.70;;
5379;SDS011;2713;42.680;23.310;2024-02-15T09:21:45;8.60;;;6.97;;
5379;SDS011;2713;42.680;23.310;2024-02-15T09:24:12;11.17;;;6.73;;
5379;SDS011;2713;42.680;23.310;2024-02-15T09:26:41;9.67;;;7.03;;
5379;SDS011;2713;42.680;23.310;2024-02-15T09:29:09;8.40;;;6.37;;
5379;SDS011;2713;42.680;23.310;2024-02-15T09:31:39;8.90;;;7.53;;
5379;SDS011;2713;42.680;23.310;2024-02-15T09:34:05;9.00;;;7.03;;
5379;SDS011;2713;42.680;23.310;2024-02-15T09:36:33;9.20;;;6.93;;
5379;SDS011;2713;42.680;23.310;2024-02-15T09:39:00;9.70;;;6.30;;
5379;SDS011;2713;42.680;23.310;2024-02-15T09:41:27;9.23;;;6.93;;
5379;SDS011;2713;42.680;23.310;2024-02-15T09:43:54;7.93;;;6.23;;
5379;SDS011;2713;42.680;23.310;2024-02-15T09:46:21;8.50;;;6.50;;
5379;SDS011;2713;42.680;23.310;2024-02-15T09:48:49;7.07;;;6.17;;
5379;SDS011;2713;42.680;23.310;2024-02-15T09:51:23;7.87;;;6.03;;
5379;SDS011;2713;42.680;23.310;2024-02-15T09:53:52;7.23;;;6.03;;
5379;SDS011;2713;42.680;23.310;2024-02-15T09:56:19;9.00;;;6.47;;
5379;SDS011;2713;42.680;23.310;2024-02-15T09:58:49;9.20;;;6.53;;
5379;SDS011;2713;42.680;23.310;2024-02-15T10:01:17;7.97;;;6.20;;
5379;SDS011;2713;42.680;23.310;2024-02-15T10:03:46;8.20;;;6.40;;
5379;SDS011;2713;42.680;23.310;2024-02-15T10:06:16;7.90;;;6.33;;
5379;SDS011;2713;42.680;23.310;2024-02-15T10:08:44;8.47;;;6.83;;
5379;SDS011;2713;42.680;23.310;2024-02-15T10:11:12;11.10;;;5.70;;
5379;SDS011;2713;42.680;23.310;2024-02-15T10:13:39;7.93;;;6.33;;
5379;SDS011;2713;42.680;23.310;2024-02-15T10:16:15;8.03;;;6.77;;
5379;SDS011;2713;42.680;23.310;2024-02-15T10:18:43;9.17;;;5.87;;
5379;SDS011;2713;42.680;23.310;2024-02-15T10:21:24;8.10;;;6.07;;
5379;SDS011;2713;42.680;23.310;2024-02-15T10:24:04;7.63;;;6.67;;
5379;SDS011;2713;42.680;23.310;2024-02-15T10:26:32;8.30;;;6.80;;
5379;SDS011;2713;42.680;23.310;2024-02-15T10:29:09;9.03;;;6.40;;
5379;SDS011;2713;42.680;23.310;2024-02-15T10:31:37;13.37;;;6.40;;
5379;SDS011;2713;42.680;23.310;2024-02-15T10:34:06;8.13;;;6.10;;
5379;SDS011;2713;42.680;23.310;2024-02-15T10:36:35;9.50;;;6.57;;
5379;SDS011;2713;42.680;23.310;2024-02-15T10:39:12;8.20;;;6.07;;
5379;SDS011;2713;42.680;23.310;2024-02-15T10:41:46;7.03;;;5.30;;
5379;SDS011;2713;42.680;23.310;2024-02-15T10:44:15;6.73;;;5.83;;
5379;SDS011;2713;42.680;23.310;2024-02-15T10:46:44;7.30;;;5.60;;
5379;SDS011;2713;42.680;23.310;2024-02-15T10:49:12;6.43;;;5.80;;
5379;SDS011;2713;42.680;23.310;2024-02-15T10:51:43;6.37;;;5.37;;
5379;SDS011;2713;42.680;23.310;2024-02-15T10:54:15;8.07;;;6.23;;
5379;SDS011;2713;42.680;23.310;2024-02-15T10:56:52;7.10;;;6.30;;
5379;SDS011;2713;42.680;23.310;2024-02-15T10:59:25;6.80;;;5.77;;
5379;SDS011;2713;42.680;23.310;2024-02-15T11:01:59;9.40;;;6.40;;
5379;SDS011;2713;42.680;23.310;2024-02-15T11:04:30;10.50;;;5.37;;
5379;SDS011;2713;42.680;23.310;2024-02-15T11:07:02;7.30;;;5.60;;
5379;SDS011;2713;42.680;23.310;2024-02-15T11:09:31;7.20;;;5.90;;
5379;SDS011;2713;42.680;23.310;2024-02-15T11:11:58;7.87;;;6.50;;
5379;SDS011;2713;42.680;23.310;2024-02-15T11:14:26;7.30;;;5.70;;
5379;SDS011;2713;42.680;23.310;2024-02-15T11:16:54;6.83;;;5.80;;
5379;SDS011;2713;42.680;23.310;2024-02-15T11:19:41;7.87;;;5.80;;
5379;SDS011;2713;42.680;23.310;2024-02-15T11:22:13;7.07;;;5.20;;
5379;SDS011;2713;42.680;23.310;2024-02-15T11:24:47;6.23;;;5.63;;
5379;SDS011;2713;42.680;23.310;2024-02-15T11:27:25;7.40;;;5.00;;
5379;SDS011;2713;42.680;23.310;2024-02-15T11:29:57;7.90;;;5.20;;
5379;SDS011;2713;42.680;23.310;2024-02-15T11:32:38;7.27;;;5.57;;
5379;SDS011;2713;42.680;23.310;2024-02-15T11:35:05;6.90;;;5.30;;
5379;SDS011;2713;42.680;23.310;2024-02-15T11:40:29;7.50;;;5.47;;
5379;SDS011;2713;42.680;23.310;2024-02-15T11:43:44;5.63;;;4.80;;
5379;SDS011;2713;42.680;23.310;2024-02-15T11:46:23;5.63;;;4.93;;
5379;SDS011;2713;42.680;23.310;2024-02-15T11:48:52;5.53;;;5.00;;
5379;SDS011;2713;42.680;23.310;2024-02-15T11:51:24;7.50;;;4.97;;
5379;SDS011;2713;42.680;23.310;2024-02-15T11:54:01;7.33;;;5.80;;
5379;SDS011;2713;42.680;23.310;2024-02-15T11:56:32;6.77;;;5.60;;
5379;SDS011;2713;42.680;23.310;2024-02-15T11:59:17;7.23;;;5.70;;
5379;SDS011;2713;42.680;23.310;2024-02-15T12:01:54;6.77;;;5.40;;
5379;SDS011;2713;42.680;23.310;2024-02-15T12:04:39;6.83;;;6.03;;
5379;SDS011;2713;42.680;23.310;2024-02-15T12:07:23;7.13;;;5.43;;
5379;SDS011;2713;42.680;23.310;2024-02-15T12:10:16;6.17;;;5.43;;
5379;SDS011;2713;42.680;23.310;2024-02-15T12:13:00;7.55;;;6.10;;
5379;SDS011;2713;42.680;23.310;2024-02-15T12:15:55;7.43;;;6.10;;
5379;SDS011;2713;42.680;23.310;2024-02-15T12:18:40;6.77;;;5.63;;
5379;SDS011;2713;42.680;23.310;2024-02-15T12:21:14;9.00;;;6.30;;
5379;SDS011;2713;42.680;23.310;2024-02-15T12:23:43;7.60;;;5.93;;
5379;SDS011;2713;42.680;23.310;2024-02-15T12:26:12;5.90;;;5.40;;
5379;SDS011;2713;42.680;23.310;2024-02-15T12:28:40;9.03;;;5.77;;
5379;SDS011;2713;42.680;23.310;2024-02-15T12:31:08;7.50;;;5.80;;
5379;SDS011;2713;42.680;23.310;2024-02-15T12:33:38;7.83;;;5.53;;
5379;SDS011;2713;42.680;23.310;2024-02-15T12:36:05;9.47;;;6.27;;
5379;SDS011;2713;42.680;23.310;2024-02-15T12:38:33;6.73;;;5.43;;
5379;SDS011;2713;42.680;23.310;2024-02-15T12:41:02;8.03;;;6.43;;
5379;SDS011;2713;42.680;23.310;2024-02-15T12:43:31;7.40;;;6.20;;
5379;SDS011;2713;42.680;23.310;2024-02-15T12:45:58;6.50;;;5.70;;
5379;SDS011;2713;42.680;23.310;2024-02-15T12:48:25;7.00;;;5.33;;
5379;SDS011;2713;42.680;23.310;2024-02-15T12:50:52;6.73;;;5.70;;
5379;SDS011;2713;42.680;23.310;2024-02-15T12:53:20;7.50;;;6.10;;
5379;SDS011;2713;42.680;23.310;2024-02-15T12:55:52;7.27;;;6.13;;
5379;SDS011;2713;42.680;23.310;2024-02-15T12:58:20;7.00;;;6.23;;
5379;SDS011;2713;42.680;23.310;2024-02-15T13:00:51;7.80;;;5.60;;
5379;SDS011;2713;42.680;23.310;2024-02-15T13:03:23;7.87;;;5.50;;
5379;SDS011;2713;42.680;23.310;2024-02-15T13:05:50;5.90;;;5.30;;
5379;SDS011;2713;42.680;23.310;2024-02-15T13:08:17;7.17;;;5.77;;
5379;SDS011;2713;42.680;23.310;2024-02-15T13:10:45;8.60;;;6.17;;
5379;SDS011;2713;42.680;23.310;2024-02-15T13:13:12;7.57;;;5.30;;
5379;SDS011;2713;42.680;23.310;2024-02-15T13:15:41;6.80;;;6.10;;
5379;SDS011;2713;42.680;23.310;2024-02-15T13:18:10;7.57;;;6.37;;
5379;SDS011;2713;42.680;23.310;2024-02-15T13:20:39;7.90;;;5.70;;
5379;SDS011;2713;42.680;23.310;2024-02-15T13:23:06;7.17;;;5.80;;
5379;SDS011;2713;42.680;23.310;2024-02-15T13:25:40;6.50;;;4.93;;
5379;SDS011;2713;42.680;23.310;2024-02-15T13:28:08;8.87;;;6.10;;
5379;SDS011;2713;42.680;23.310;2024-02-15T13:30:35;6.33;;;5.50;;
5379;SDS011;2713;42.680;23.310;2024-02-15T13:33:10;10.43;;;5.30;;
5379;SDS011;2713;42.680;23.310;2024-02-15T13:35:38;8.50;;;6.00;;
5379;SDS011;2713;42.680;23.310;2024-02-15T13:38:06;7.53;;;5.57;;
5379;SDS011;2713;42.680;23.310;2024-02-15T13:40:39;7.10;;;5.80;;
5379;SDS011;2713;42.680;23.310;2024-02-15T13:43:07;6.67;;;5.50;;
5379;SDS011;2713;42.680;23.310;2024-02-15T13:45:38;6.53;;;5.40;;
5379;SDS011;2713;42.680;23.310;2024-02-15T13:48:10;6.50;;;4.70;;
5379;SDS011;2713;42.680;23.310;2024-02-15T13:50:40;5.60;;;5.00;;
5379;SDS011;2713;42.680;23.310;2024-02-15T13:53:07;7.80;;;4.97;;
5379;SDS011;2713;42.680;23.310;2024-02-15T13:55:34;6.20;;;5.60;;
5379;SDS011;2713;42.680;23.310;2024-02-15T13:58:02;7.70;;;5.60;;
5379;SDS011;2713;42.680;23.310;2024-02-15T14:00:29;6.90;;;5.67;;
5379;SDS011;2713;42.680;23.310;2024-02-15T14:02:59;6.97;;;5.90;;
5379;SDS011;2713;42.680;23.310;2024-02-15T14:05:29;7.93;;;5.50;;
5379;SDS011;2713;42.680;23.310;2024-02-15T14:07:57;6.17;;;4.90;;
5379;SDS011;2713;42.680;23.310;2024-02-15T14:10:24;6.53;;;5.27;;
5379;SDS011;2713;42.680;23.310;2024-02-15T14:12:53;7.13;;;5.50;;
5379;SDS011;2713;42.680;23.310;2024-02-15T14:15:23;7.77;;;5.73;;
5379;SDS011;2713;42.680;23.310;2024-02-15T14:17:51;5.73;;;5.17;;
5379;SDS011;2713;42.680;23.310;2024-02-15T14:20:18;5.93;;;5.40;;
5379;SDS011;2713;42.680;23.310;2024-02-15T14:22:48;7.60;;;5.47;;
5379;SDS011;2713;42.680;23.310;2024-02-15T14:25:20;6.00;;;5.37;;
5379;SDS011;2713;42.680;23.310;2024-02-15T14:27:47;7.40;;;5.73;;
5379;SDS011;2713;42.680;23.310;2024-02-15T14:30:14;7.10;;;5.70;;
5379;SDS011;2713;42.680;23.310;2024-02-15T14:32:59;6.23;;;5.63;;
5379;SDS011;2713;42.680;23.310;2024-02-15T14:35:26;7.93;;;5.17;;
5379;SDS011;2713;42.680;23.310;2024-02-15T14:37:55;7.47;;;6.30;;
5379;SDS011;2713;42.680;23.310;2024-02-15T14:40:23;7.20;;;5.70;;
5379;SDS011;2713;42.680;23.310;2024-02-15T14:42:50;7.80;;;6.30;;
5379;SDS011;2713;42.680;23.310;2024-02-15T14:45:17;6.43;;;5.83;;
5379;SDS011;2713;42.680;23.310;2024-02-15T14:47:45;6.90;;;5.57;;
5379;SDS011;2713;42.680;23.310;2024-02-15T14:50:12;7.30;;;6.20;;
5379;SDS011;2713;42.680;23.310;2024-02-15T14:52:39;14.63;;;6.17;;
5379;SDS011;2713;42.680;23.310;2024-02-15T14:55:07;7.60;;;6.40;;
5379;SDS011;2713;42.680;23.310;2024-02-15T14:57:34;8.00;;;5.97;;
5379;SDS011;2713;42.680;23.310;2024-02-15T15:00:03;10.53;;;6.47;;
5379;SDS011;2713;42.680;23.310;2024-02-15T15:02:36;7.37;;;6.63;;
5379;SDS011;2713;42.680;23.310;2024-02-15T15:05:03;9.23;;;6.87;;
5379;SDS011;2713;42.680;23.310;2024-02-15T15:07:49;11.23;;;6.90;;
5379;SDS011;2713;42.680;23.310;2024-02-15T15:10:35;8.40;;;6.10;;